sensor_id;sensor_type;location;lat;lon;timestamp;pressure;altitude;pressure_sealevel;temperature;humidity
62055;BME280;48653;51.742;-1.256;2023-02-03T00:03:45;102207.99;;;7.30;63.36
62055;BME280;48653;51.742;-1.256;2023-02-03T00:06:10;102210.21;;;8.56;62.18
62055;BME280;48653;51.742;-1.256;2023-02-03T00:08:35;102206.98;;;8.74;60.68
62055;BME280;48653;51.742;-1.256;2023-02-03T00:11:01;102203.67;;;8.46;61.47
62055;BME280;48653;51.742;-1.256;2023-02-03T00:13:26;102202.16;;;8.02;62.52
62055;BME280;48653;51.742;-1.256;2023-02-03T00:15:51;102196.21;;;8.29;62.77
62055;BME280;48653;51.742;-1.256;2023-02-03T00:18:17;102184.29;;;8.32;63.00
62055;BME280;48653;51.742;-1.256;2023-02-03T00:20:42;102174.78;;;8.31;63.13
62055;BME280;48653;51.742;-1.256;2023-02-03T00:23:09;102185.37;;;7.31;65.37
62055;BME280;48653;51.742;-1.256;2023-02-03T00:25:33;102179.08;;;8.16;62.28
62055;BME280;48653;51.742;-1.256;2023-02-03T00:27:58;102174.36;;;8.27;63.26
62055;BME280;48653;51.742;-1.256;2023-02-03T00:30:23;102166.83;;;8.11;63.69
62055;BME280;48653;51.742;-1.256;2023-02-03T00:32:48;102155.86;;;8.41;62.78
62055;BME280;48653;51.742;-1.256;2023-02-03T00:35:14;102154.29;;;8.30;63.15
62055;BME280;48653;51.742;-1.256;2023-02-03T00:37:39;102155.74;;;8.13;63.55
62055;BME280;48653;51.742;-1.256;2023-02-03T00:40:05;102173.52;;;8.27;62.06
62055;BME280;48653;51.742;-1.256;2023-02-03T00:42:29;102177.07;;;8.58;62.64
62055;BME280;48653;51.742;-1.256;2023-02-03T00:44:54;102175.11;;;8.47;62.32
62055;BME280;48653;51.742;-1.256;2023-02-03T00:47:20;102169.97;;;9.03;60.23
62055;BME280;48653;51.742;-1.256;2023-02-03T00:49:45;102167.68;;;9.24;59.87
62055;BME280;48653;51.742;-1.256;2023-02-03T00:52:11;102163.36;;;9.00;60.19
62055;BME280;48653;51.742;-1.256;2023-02-03T00:54:36;102166.85;;;9.06;60.18
62055;BME280;48653;51.742;-1.256;2023-02-03T00:57:01;102170.10;;;8.55;62.02
62055;BME280;48653;51.742;-1.256;2023-02-03T00:59:26;102173.06;;;7.93;62.75
62055;BME280;48653;51.742;-1.256;2023-02-03T01:01:52;102177.07;;;7.67;64.85
62055;BME280;48653;51.742;-1.256;2023-02-03T01:04:17;102171.05;;;7.93;64.49
62055;BME280;48653;51.742;-1.256;2023-02-03T01:06:52;102166.68;;;8.32;63.68
62055;BME280;48653;51.742;-1.256;2023-02-03T01:09:08;102159.61;;;8.81;61.88
62055;BME280;48653;51.742;-1.256;2023-02-03T01:11:33;102147.81;;;9.14;60.54
62055;BME280;48653;51.742;-1.256;2023-02-03T01:13:58;102151.57;;;8.65;62.26
62055;BME280;48653;51.742;-1.256;2023-02-03T01:16:23;102156.13;;;7.99;63.08
62055;BME280;48653;51.742;-1.256;2023-02-03T01:18:49;102147.62;;;8.82;61.69
62055;BME280;48653;51.742;-1.256;2023-02-03T01:21:16;102153.65;;;9.01;61.10
62055;BME280;48653;51.742;-1.256;2023-02-03T01:23:40;102152.03;;;7.84;63.93
62055;BME280;48653;51.742;-1.256;2023-02-03T01:26:06;102153.13;;;8.49;63.17
62055;BME280;48653;51.742;-1.256;2023-02-03T01:28:29;102146.60;;;8.36;62.16
62055;BME280;48653;51.742;-1.256;2023-02-03T01:30:54;102134.08;;;8.46;62.72
62055;BME280;48653;51.742;-1.256;2023-02-03T01:33:20;102139.32;;;8.63;61.57
62055;BME280;48653;51.742;-1.256;2023-02-03T01:35:45;102148.97;;;9.18;59.62
62055;BME280;48653;51.742;-1.256;2023-02-03T01:38:10;102146.93;;;7.85;64.52
62055;BME280;48653;51.742;-1.256;2023-02-03T01:40:42;102148.20;;;8.27;62.99
62055;BME280;48653;51.742;-1.256;2023-02-03T01:43:01;102151.97;;;8.16;62.49
62055;BME280;48653;51.742;-1.256;2023-02-03T01:45:26;102154.32;;;8.63;61.83
62055;BME280;48653;51.742;-1.256;2023-02-03T01:50:20;102156.07;;;8.83;60.45
62055;BME280;48653;51.742;-1.256;2023-02-03T01:52:44;102165.24;;;9.16;59.62
62055;BME280;48653;51.742;-1.256;2023-02-03T01:55:10;102159.61;;;8.44;61.24
62055;BME280;48653;51.742;-1.256;2023-02-03T01:57:35;102155.54;;;9.04;59.39
62055;BME280;48653;51.742;-1.256;2023-02-03T01:59:58;102147.29;;;8.91;59.99
62055;BME280;48653;51.742;-1.256;2023-02-03T02:02:22;102149.36;;;9.36;58.48
62055;BME280;48653;51.742;-1.256;2023-02-03T02:04:52;102146.08;;;9.00;59.18
62055;BME280;48653;51.742;-1.256;2023-02-03T02:07:13;102149.04;;;9.00;59.22
62055;BME280;48653;51.742;-1.256;2023-02-03T02:09:38;102147.53;;;9.06;59.61
62055;BME280;48653;51.742;-1.256;2023-02-03T02:12:03;102150.23;;;8.45;60.93
62055;BME280;48653;51.742;-1.256;2023-02-03T02:14:29;102146.46;;;8.77;60.91
62055;BME280;48653;51.742;-1.256;2023-02-03T02:16:59;102149.26;;;8.66;60.31
62055;BME280;48653;51.742;-1.256;2023-02-03T02:19:40;102155.00;;;9.50;57.50
62055;BME280;48653;51.742;-1.256;2023-02-03T02:21:53;102150.54;;;9.61;57.56
62055;BME280;48653;51.742;-1.256;2023-02-03T02:26:47;102156.31;;;8.74;60.00
62055;BME280;48653;51.742;-1.256;2023-02-03T02:29:11;102155.29;;;8.99;59.43
62055;BME280;48653;51.742;-1.256;2023-02-03T02:31:38;102152.18;;;8.07;60.97
62055;BME280;48653;51.742;-1.256;2023-02-03T02:33:55;102144.56;;;9.28;58.86
62055;BME280;48653;51.742;-1.256;2023-02-03T02:36:22;102149.95;;;8.91;60.18
62055;BME280;48653;51.742;-1.256;2023-02-03T02:38:47;102145.57;;;8.78;60.59
62055;BME280;48653;51.742;-1.256;2023-02-03T02:41:09;102145.09;;;8.35;61.53
62055;BME280;48653;51.742;-1.256;2023-02-03T02:43:37;102144.88;;;7.95;63.82
62055;BME280;48653;51.742;-1.256;2023-02-03T02:45:59;102149.15;;;8.29;62.78
62055;BME280;48653;51.742;-1.256;2023-02-03T02:48:23;102148.07;;;8.53;61.94
62055;BME280;48653;51.742;-1.256;2023-02-03T02:50:49;102156.91;;;8.60;61.34
62055;BME280;48653;51.742;-1.256;2023-02-03T02:53:12;102163.77;;;8.44;61.46
62055;BME280;48653;51.742;-1.256;2023-02-03T02:55:38;102162.23;;;8.33;63.03
62055;BME280;48653;51.742;-1.256;2023-02-03T02:58:05;102164.41;;;8.92;61.05
62055;BME280;48653;51.742;-1.256;2023-02-03T03:00:29;102168.25;;;9.14;60.42
62055;BME280;48653;51.742;-1.256;2023-02-03T03:02:52;102167.59;;;8.49;62.55
62055;BME280;48653;51.742;-1.256;2023-02-03T03:05:17;102168.96;;;8.70;60.93
62055;BME280;48653;51.742;-1.256;2023-02-03T03:07:45;102172.94;;;9.62;58.82
62055;BME280;48653;51.742;-1.256;2023-02-03T03:10:10;102170.80;;;8.71;61.03
62055;BME280;48653;51.742;-1.256;2023-02-03T03:12:35;102171.80;;;9.23;59.62
62055;BME280;48653;51.742;-1.256;2023-02-03T03:15:00;102170.24;;;8.46;61.87
62055;BME280;48653;51.742;-1.256;2023-02-03T03:17:26;102167.47;;;8.45;60.62
62055;BME280;48653;51.742;-1.256;2023-02-03T03:22:15;102173.93;;;8.24;61.14
62055;BME280;48653;51.742;-1.256;2023-02-03T03:24:42;102164.61;;;8.98;58.70
62055;BME280;48653;51.742;-1.256;2023-02-03T03:27:07;102169.12;;;8.63;60.00
62055;BME280;48653;51.742;-1.256;2023-02-03T03:29:33;102162.13;;;8.84;59.73
62055;BME280;48653;51.742;-1.256;2023-02-03T03:31:56;102168.19;;;8.42;59.12
62055;BME280;48653;51.742;-1.256;2023-02-03T03:34:20;102166.57;;;8.93;59.03
62055;BME280;48653;51.742;-1.256;2023-02-03T03:36:49;102167.81;;;9.70;57.24
62055;BME280;48653;51.742;-1.256;2023-02-03T03:39:16;102166.98;;;9.09;58.88
62055;BME280;48653;51.742;-1.256;2023-02-03T03:41:40;102166.65;;;9.21;57.72
62055;BME280;48653;51.742;-1.256;2023-02-03T03:44:03;102168.63;;;9.36;57.27
62055;BME280;48653;51.742;-1.256;2023-02-03T03:46:29;102170.55;;;9.19;57.52
62055;BME280;48653;51.742;-1.256;2023-02-03T03:48:55;102175.95;;;8.99;58.56
62055;BME280;48653;51.742;-1.256;2023-02-03T03:51:20;102178.87;;;8.64;59.42
62055;BME280;48653;51.742;-1.256;2023-02-03T03:53:43;102174.69;;;8.15;60.72
62055;BME280;48653;51.742;-1.256;2023-02-03T03:56:10;102180.37;;;8.41;59.92
62055;BME280;48653;51.742;-1.256;2023-02-03T03:58:32;102170.59;;;8.45;59.78
62055;BME280;48653;51.742;-1.256;2023-02-03T04:01:00;102172.71;;;7.91;61.02
62055;BME280;48653;51.742;-1.256;2023-02-03T04:03:34;102162.61;;;8.43;59.81
62055;BME280;48653;51.742;-1.256;2023-02-03T04:05:47;102164.74;;;7.85;61.31
62055;BME280;48653;51.742;-1.256;2023-02-03T04:08:12;102172.33;;;7.76;61.41
62055;BME280;48653;51.742;-1.256;2023-02-03T04:10:39;102169.98;;;7.98;61.71
62055;BME280;48653;51.742;-1.256;2023-02-03T04:13:03;102168.56;;;8.28;60.49
62055;BME280;48653;51.742;-1.256;2023-02-03T04:15:28;102163.26;;;7.89;61.53
62055;BME280;48653;51.742;-1.256;2023-02-03T04:17:53;102163.91;;;8.26;61.19
62055;BME280;48653;51.742;-1.256;2023-02-03T04:20:19;102166.16;;;8.16;60.86
62055;BME280;48653;51.742;-1.256;2023-02-03T04:22:43;102170.53;;;7.18;63.42
62055;BME280;48653;51.742;-1.256;2023-02-03T04:25:09;102181.52;;;7.41;62.94
62055;BME280;48653;51.742;-1.256;2023-02-03T04:27:34;102174.15;;;7.76;62.18
62055;BME280;48653;51.742;-1.256;2023-02-03T04:30:00;102161.74;;;8.00;62.30
62055;BME280;48653;51.742;-1.256;2023-02-03T04:32:26;102160.87;;;8.03;62.31
62055;BME280;48653;51.742;-1.256;2023-02-03T04:34:51;102172.59;;;8.03;62.32
62055;BME280;48653;51.742;-1.256;2023-02-03T04:37:16;102177.01;;;8.10;62.49
62055;BME280;48653;51.742;-1.256;2023-02-03T04:39:41;102178.28;;;7.53;64.79
62055;BME280;48653;51.742;-1.256;2023-02-03T04:42:06;102187.81;;;8.39;62.67
62055;BME280;48653;51.742;-1.256;2023-02-03T04:44:31;102199.09;;;7.63;63.98
62055;BME280;48653;51.742;-1.256;2023-02-03T04:46:56;102201.08;;;8.14;63.70
62055;BME280;48653;51.742;-1.256;2023-02-03T04:49:21;102200.56;;;8.45;62.91
62055;BME280;48653;51.742;-1.256;2023-02-03T04:51:48;102211.22;;;8.04;63.87
62055;BME280;48653;51.742;-1.256;2023-02-03T04:54:12;102214.20;;;7.75;64.20
62055;BME280;48653;51.742;-1.256;2023-02-03T04:56:37;102217.09;;;8.33;62.21
62055;BME280;48653;51.742;-1.256;2023-02-03T04:59:02;102221.42;;;8.59;61.71
62055;BME280;48653;51.742;-1.256;2023-02-03T05:01:27;102224.78;;;8.05;62.65
62055;BME280;48653;51.742;-1.256;2023-02-03T05:03:53;102220.89;;;8.40;63.39
62055;BME280;48653;51.742;-1.256;2023-02-03T05:06:22;102226.97;;;8.82;62.36
62055;BME280;48653;51.742;-1.256;2023-02-03T05:08:43;102222.76;;;8.76;61.28
62055;BME280;48653;51.742;-1.256;2023-02-03T05:11:08;102229.12;;;8.15;62.74
62055;BME280;48653;51.742;-1.256;2023-02-03T05:13:34;102224.05;;;8.38;62.31
62055;BME280;48653;51.742;-1.256;2023-02-03T05:15:59;102232.52;;;8.99;60.65
62055;BME280;48653;51.742;-1.256;2023-02-03T05:18:24;102241.85;;;8.54;61.67
62055;BME280;48653;51.742;-1.256;2023-02-03T05:20:49;102247.62;;;8.34;62.21
62055;BME280;48653;51.742;-1.256;2023-02-03T05:23:14;102244.63;;;8.93;60.59
62055;BME280;48653;51.742;-1.256;2023-02-03T05:25:39;102249.55;;;8.80;60.48
62055;BME280;48653;51.742;-1.256;2023-02-03T05:28:04;102254.40;;;8.99;60.46
62055;BME280;48653;51.742;-1.256;2023-02-03T05:30:29;102257.88;;;9.59;59.04
62055;BME280;48653;51.742;-1.256;2023-02-03T05:32:54;102257.55;;;8.81;60.11
62055;BME280;48653;51.742;-1.256;2023-02-03T05:35:20;102261.30;;;9.44;58.40
62055;BME280;48653;51.742;-1.256;2023-02-03T05:37:45;102260.30;;;9.22;58.01
62055;BME280;48653;51.742;-1.256;2023-02-03T05:40:11;102256.97;;;8.85;59.78
62055;BME280;48653;51.742;-1.256;2023-02-03T05:42:35;102257.63;;;8.90;59.66
62055;BME280;48653;51.742;-1.256;2023-02-03T05:45:00;102260.07;;;8.04;61.68
62055;BME280;48653;51.742;-1.256;2023-02-03T05:47:25;102261.69;;;8.48;60.58
62055;BME280;48653;51.742;-1.256;2023-02-03T05:49:50;102263.08;;;9.27;59.13
62055;BME280;48653;51.742;-1.256;2023-02-03T05:52:15;102260.50;;;8.99;59.68
62055;BME280;48653;51.742;-1.256;2023-02-03T05:54:40;102270.14;;;8.59;59.76
62055;BME280;48653;51.742;-1.256;2023-02-03T05:57:06;102273.12;;;9.30;58.10
62055;BME280;48653;51.742;-1.256;2023-02-03T05:59:31;102280.73;;;8.53;59.05
62055;BME280;48653;51.742;-1.256;2023-02-03T06:01:56;102280.54;;;8.61;59.57
62055;BME280;48653;51.742;-1.256;2023-02-03T06:04:21;102278.79;;;8.92;57.56
62055;BME280;48653;51.742;-1.256;2023-02-03T06:06:46;102279.81;;;9.12;57.20
62055;BME280;48653;51.742;-1.256;2023-02-03T06:09:11;102282.29;;;8.65;58.04
62055;BME280;48653;51.742;-1.256;2023-02-03T06:11:36;102280.48;;;9.49;56.12
62055;BME280;48653;51.742;-1.256;2023-02-03T06:14:02;102280.79;;;9.07;57.02
62055;BME280;48653;51.742;-1.256;2023-02-03T06:16:27;102288.68;;;9.25;56.67
62055;BME280;48653;51.742;-1.256;2023-02-03T06:18:53;102291.97;;;9.53;56.04
62055;BME280;48653;51.742;-1.256;2023-02-03T06:21:19;102291.30;;;8.76;57.59
62055;BME280;48653;51.742;-1.256;2023-02-03T06:23:42;102291.25;;;9.11;56.81
62055;BME280;48653;51.742;-1.256;2023-02-03T06:26:08;102289.35;;;9.25;54.98
62055;BME280;48653;51.742;-1.256;2023-02-03T06:28:33;102289.05;;;9.93;54.78
62055;BME280;48653;51.742;-1.256;2023-02-03T06:30:58;102291.60;;;8.99;55.98
62055;BME280;48653;51.742;-1.256;2023-02-03T06:33:23;102296.69;;;9.55;54.66
62055;BME280;48653;51.742;-1.256;2023-02-03T06:35:48;102296.46;;;9.34;55.64
62055;BME280;48653;51.742;-1.256;2023-02-03T06:38:13;102292.16;;;8.85;57.36
62055;BME280;48653;51.742;-1.256;2023-02-03T06:40:39;102292.43;;;8.96;57.14
62055;BME280;48653;51.742;-1.256;2023-02-03T06:43:04;102286.25;;;9.15;57.16
62055;BME280;48653;51.742;-1.256;2023-02-03T06:45:29;102282.71;;;8.54;58.50
62055;BME280;48653;51.742;-1.256;2023-02-03T06:47:55;102285.28;;;8.29;59.13
62055;BME280;48653;51.742;-1.256;2023-02-03T06:50:20;102286.03;;;8.42;58.10
62055;BME280;48653;51.742;-1.256;2023-02-03T06:52:45;102290.78;;;8.72;56.86
62055;BME280;48653;51.742;-1.256;2023-02-03T06:55:10;102292.51;;;8.92;56.54
62055;BME280;48653;51.742;-1.256;2023-02-03T06:57:42;102291.89;;;8.53;56.71
62055;BME280;48653;51.742;-1.256;2023-02-03T07:00:02;102301.50;;;8.90;56.30
62055;BME280;48653;51.742;-1.256;2023-02-03T07:02:25;102308.85;;;8.75;56.92
62055;BME280;48653;51.742;-1.256;2023-02-03T07:04:50;102313.22;;;8.66;56.81
62055;BME280;48653;51.742;-1.256;2023-02-03T07:07:16;102319.71;;;8.65;57.84
62055;BME280;48653;51.742;-1.256;2023-02-03T07:09:41;102320.03;;;8.86;56.60
62055;BME280;48653;51.742;-1.256;2023-02-03T07:12:06;102323.84;;;8.68;57.60
62055;BME280;48653;51.742;-1.256;2023-02-03T07:14:31;102326.97;;;8.12;59.10
62055;BME280;48653;51.742;-1.256;2023-02-03T07:16:56;102329.71;;;8.81;58.33
62055;BME280;48653;51.742;-1.256;2023-02-03T07:19:21;102326.64;;;8.36;58.06
62055;BME280;48653;51.742;-1.256;2023-02-03T07:21:47;102322.40;;;9.18;56.86
62055;BME280;48653;51.742;-1.256;2023-02-03T07:24:12;102323.37;;;9.47;56.09
62055;BME280;48653;51.742;-1.256;2023-02-03T07:26:37;102320.37;;;8.68;57.69
62055;BME280;48653;51.742;-1.256;2023-02-03T07:29:03;102319.09;;;8.31;58.68
62055;BME280;48653;51.742;-1.256;2023-02-03T07:31:28;102322.06;;;8.10;59.08
62055;BME280;48653;51.742;-1.256;2023-02-03T07:33:53;102320.65;;;8.21;59.24
62055;BME280;48653;51.742;-1.256;2023-02-03T07:36:18;102315.71;;;8.95;58.01
62055;BME280;48653;51.742;-1.256;2023-02-03T07:38:43;102313.28;;;8.33;59.70
62055;BME280;48653;51.742;-1.256;2023-02-03T07:41:08;102317.18;;;7.72;61.41
62055;BME280;48653;51.742;-1.256;2023-02-03T07:43:33;102310.80;;;7.82;62.01
62055;BME280;48653;51.742;-1.256;2023-02-03T07:45:59;102312.00;;;7.51;62.75
62055;BME280;48653;51.742;-1.256;2023-02-03T07:48:29;102305.32;;;8.49;60.62
62055;BME280;48653;51.742;-1.256;2023-02-03T07:50:49;102308.79;;;7.31;63.20
62055;BME280;48653;51.742;-1.256;2023-02-03T07:53:15;102310.14;;;7.30;63.37
62055;BME280;48653;51.742;-1.256;2023-02-03T07:55:40;102314.14;;;7.47;63.12
62055;BME280;48653;51.742;-1.256;2023-02-03T07:58:06;102318.35;;;7.43;63.17
62055;BME280;48653;51.742;-1.256;2023-02-03T08:00:31;102315.98;;;7.36;63.77
62055;BME280;48653;51.742;-1.256;2023-02-03T08:02:56;102314.86;;;7.89;61.67
62055;BME280;48653;51.742;-1.256;2023-02-03T08:05:21;102323.13;;;7.53;63.34
62055;BME280;48653;51.742;-1.256;2023-02-03T08:07:47;102321.48;;;7.97;60.69
62055;BME280;48653;51.742;-1.256;2023-02-03T08:10:14;102320.69;;;8.19;61.01
62055;BME280;48653;51.742;-1.256;2023-02-03T08:12:37;102323.07;;;7.98;60.84
62055;BME280;48653;51.742;-1.256;2023-02-03T08:15:03;102316.22;;;8.19;60.19
62055;BME280;48653;51.742;-1.256;2023-02-03T08:17:27;102328.79;;;7.82;62.54
62055;BME280;48653;51.742;-1.256;2023-02-03T08:19:53;102325.29;;;7.85;61.38
62055;BME280;48653;51.742;-1.256;2023-02-03T08:22:18;102331.45;;;7.89;62.30
62055;BME280;48653;51.742;-1.256;2023-02-03T08:24:44;102329.38;;;7.22;63.20
62055;BME280;48653;51.742;-1.256;2023-02-03T08:27:09;102331.28;;;7.57;62.98
62055;BME280;48653;51.742;-1.256;2023-02-03T08:29:39;102327.44;;;7.41;63.00
62055;BME280;48653;51.742;-1.256;2023-02-03T08:31:59;102328.73;;;7.58;63.03
62055;BME280;48653;51.742;-1.256;2023-02-03T08:34:24;102325.96;;;7.74;62.83
62055;BME280;48653;51.742;-1.256;2023-02-03T08:36:49;102328.55;;;8.03;62.75
62055;BME280;48653;51.742;-1.256;2023-02-03T08:39:14;102336.83;;;7.84;63.09
62055;BME280;48653;51.742;-1.256;2023-02-03T08:41:40;102345.46;;;7.47;64.25
62055;BME280;48653;51.742;-1.256;2023-02-03T08:44:04;102352.62;;;7.61;64.47
62055;BME280;48653;51.742;-1.256;2023-02-03T08:46:29;102359.57;;;7.56;64.07
62055;BME280;48653;51.742;-1.256;2023-02-03T08:48:55;102365.99;;;7.49;65.40
62055;BME280;48653;51.742;-1.256;2023-02-03T08:51:19;102370.93;;;7.85;63.70
62055;BME280;48653;51.742;-1.256;2023-02-03T08:53:44;102373.61;;;8.33;62.53
62055;BME280;48653;51.742;-1.256;2023-02-03T08:56:11;102381.69;;;8.29;62.51
62055;BME280;48653;51.742;-1.256;2023-02-03T08:58:36;102380.34;;;7.81;62.67
62055;BME280;48653;51.742;-1.256;2023-02-03T09:01:07;102376.46;;;8.08;63.11
62055;BME280;48653;51.742;-1.256;2023-02-03T09:03:31;102368.53;;;8.54;61.92
62055;BME280;48653;51.742;-1.256;2023-02-03T09:05:51;102369.50;;;8.22;62.64
62055;BME280;48653;51.742;-1.256;2023-02-03T09:08:16;102370.51;;;7.94;63.54
62055;BME280;48653;51.742;-1.256;2023-02-03T09:10:41;102377.79;;;8.40;62.33
62055;BME280;48653;51.742;-1.256;2023-02-03T09:13:06;102383.16;;;7.64;64.17
62055;BME280;48653;51.742;-1.256;2023-02-03T09:15:31;102380.78;;;8.11;63.14
62055;BME280;48653;51.742;-1.256;2023-02-03T09:17:57;102375.17;;;7.87;63.73
62055;BME280;48653;51.742;-1.256;2023-02-03T09:20:22;102385.62;;;8.28;62.67
62055;BME280;48653;51.742;-1.256;2023-02-03T09:22:47;102378.75;;;7.83;63.59
62055;BME280;48653;51.742;-1.256;2023-02-03T09:25:12;102381.87;;;8.16;63.08
62055;BME280;48653;51.742;-1.256;2023-02-03T09:27:38;102376.42;;;8.66;61.92
62055;BME280;48653;51.742;-1.256;2023-02-03T09:30:03;102392.88;;;8.62;61.87
62055;BME280;48653;51.742;-1.256;2023-02-03T09:32:28;102403.15;;;8.78;61.84
62055;BME280;48653;51.742;-1.256;2023-02-03T09:34:53;102402.84;;;8.61;61.55
62055;BME280;48653;51.742;-1.256;2023-02-03T09:37:19;102415.48;;;8.60;60.45
62055;BME280;48653;51.742;-1.256;2023-02-03T09:39:44;102415.75;;;8.67;60.97
62055;BME280;48653;51.742;-1.256;2023-02-03T09:42:26;102418.61;;;8.64;61.62
62055;BME280;48653;51.742;-1.256;2023-02-03T09:44:41;102416.63;;;9.04;59.31
62055;BME280;48653;51.742;-1.256;2023-02-03T09:47:04;102421.97;;;9.34;59.02
62055;BME280;48653;51.742;-1.256;2023-02-03T09:49:31;102421.05;;;9.35;59.09
62055;BME280;48653;51.742;-1.256;2023-02-03T09:51:53;102420.17;;;9.15;59.01
62055;BME280;48653;51.742;-1.256;2023-02-03T09:54:19;102421.76;;;8.73;60.43
62055;BME280;48653;51.742;-1.256;2023-02-03T09:56:42;102425.60;;;9.17;60.40
62055;BME280;48653;51.742;-1.256;2023-02-03T09:59:08;102417.69;;;9.33;59.38
62055;BME280;48653;51.742;-1.256;2023-02-03T10:01:38;102418.92;;;8.97;59.73
62055;BME280;48653;51.742;-1.256;2023-02-03T10:04:01;102418.11;;;9.57;59.02
62055;BME280;48653;51.742;-1.256;2023-02-03T10:06:29;102416.53;;;9.11;58.77
62055;BME280;48653;51.742;-1.256;2023-02-03T10:08:57;102416.53;;;9.57;58.79
62055;BME280;48653;51.742;-1.256;2023-02-03T10:11:19;102421.06;;;9.17;58.41
62055;BME280;48653;51.742;-1.256;2023-02-03T10:13:46;102416.50;;;10.17;57.30
62055;BME280;48653;51.742;-1.256;2023-02-03T10:16:20;102415.91;;;9.70;57.61
62055;BME280;48653;51.742;-1.256;2023-02-03T10:18:29;102426.67;;;10.02;57.24
62055;BME280;48653;51.742;-1.256;2023-02-03T10:20:54;102437.21;;;10.16;56.46
62055;BME280;48653;51.742;-1.256;2023-02-03T10:23:21;102447.71;;;9.53;58.00
62055;BME280;48653;51.742;-1.256;2023-02-03T10:25:45;102448.68;;;9.13;58.87
62055;BME280;48653;51.742;-1.256;2023-02-03T10:28:14;102459.46;;;9.94;57.04
62055;BME280;48653;51.742;-1.256;2023-02-03T10:30:38;102466.17;;;9.96;56.80
62055;BME280;48653;51.742;-1.256;2023-02-03T10:33:08;102471.77;;;10.32;56.25
62055;BME280;48653;51.742;-1.256;2023-02-03T10:35:30;102482.23;;;10.15;56.34
62055;BME280;48653;51.742;-1.256;2023-02-03T10:37:50;102493.37;;;10.53;55.75
62055;BME280;48653;51.742;-1.256;2023-02-03T10:40:13;102498.17;;;11.00;54.33
62055;BME280;48653;51.742;-1.256;2023-02-03T10:42:38;102496.89;;;10.44;55.35
62055;BME280;48653;51.742;-1.256;2023-02-03T10:45:04;102502.46;;;10.47;56.27
62055;BME280;48653;51.742;-1.256;2023-02-03T10:47:31;102511.76;;;10.23;57.02
62055;BME280;48653;51.742;-1.256;2023-02-03T10:49:56;102511.23;;;10.45;56.23
62055;BME280;48653;51.742;-1.256;2023-02-03T10:52:27;102515.31;;;11.23;53.92
62055;BME280;48653;51.742;-1.256;2023-02-03T10:54:44;102517.59;;;11.76;53.24
62055;BME280;48653;51.742;-1.256;2023-02-03T10:57:11;102525.91;;;11.49;53.45
62055;BME280;48653;51.742;-1.256;2023-02-03T10:59:36;102524.31;;;12.13;53.00
62055;BME280;48653;51.742;-1.256;2023-02-03T11:02:00;102535.57;;;11.87;52.19
62055;BME280;48653;51.742;-1.256;2023-02-03T11:04:26;102539.05;;;11.49;52.48
62055;BME280;48653;51.742;-1.256;2023-02-03T11:06:54;102541.81;;;11.77;52.24
62055;BME280;48653;51.742;-1.256;2023-02-03T11:09:21;102543.45;;;11.75;52.13
62055;BME280;48653;51.742;-1.256;2023-02-03T11:11:40;102546.07;;;11.64;52.71
62055;BME280;48653;51.742;-1.256;2023-02-03T11:14:14;102543.38;;;11.66;52.05
62055;BME280;48653;51.742;-1.256;2023-02-03T11:16:32;102547.45;;;11.60;52.03
62055;BME280;48653;51.742;-1.256;2023-02-03T11:18:57;102549.67;;;12.44;50.56
62055;BME280;48653;51.742;-1.256;2023-02-03T11:21:22;102552.44;;;12.10;50.91
62055;BME280;48653;51.742;-1.256;2023-02-03T11:23:51;102552.39;;;12.04;50.88
62055;BME280;48653;51.742;-1.256;2023-02-03T11:26:12;102549.42;;;11.96;51.10
62055;BME280;48653;51.742;-1.256;2023-02-03T11:28:41;102553.14;;;12.00;50.52
62055;BME280;48653;51.742;-1.256;2023-02-03T11:31:01;102548.28;;;11.93;51.04
62055;BME280;48653;51.742;-1.256;2023-02-03T11:33:27;102542.16;;;11.59;51.58
62055;BME280;48653;51.742;-1.256;2023-02-03T11:35:55;102541.11;;;12.71;49.83
62055;BME280;48653;51.742;-1.256;2023-02-03T11:38:28;102539.95;;;12.49;50.03
62055;BME280;48653;51.742;-1.256;2023-02-03T11:40:54;102540.72;;;12.13;51.05
62055;BME280;48653;51.742;-1.256;2023-02-03T11:43:16;102539.49;;;11.96;51.88
62055;BME280;48653;51.742;-1.256;2023-02-03T11:45:37;102536.54;;;11.97;51.64
62055;BME280;48653;51.742;-1.256;2023-02-03T11:48:01;102542.34;;;11.73;52.56
62055;BME280;48653;51.742;-1.256;2023-02-03T11:50:28;102550.00;;;12.44;51.74
62055;BME280;48653;51.742;-1.256;2023-02-03T11:52:55;102555.04;;;11.86;51.48
62055;BME280;48653;51.742;-1.256;2023-02-03T11:55:21;102559.62;;;12.39;50.51
62055;BME280;48653;51.742;-1.256;2023-02-03T11:57:43;102560.22;;;13.03;49.37
62055;BME280;48653;51.742;-1.256;2023-02-03T12:00:13;102564.88;;;12.58;50.17
62055;BME280;48653;51.742;-1.256;2023-02-03T12:02:49;102569.64;;;12.31;50.33
62055;BME280;48653;51.742;-1.256;2023-02-03T12:05:04;102575.16;;;12.41;50.49
62055;BME280;48653;51.742;-1.256;2023-02-03T12:07:37;102569.50;;;12.09;50.99
62055;BME280;48653;51.742;-1.256;2023-02-03T12:09:51;102568.91;;;13.09;49.35
62055;BME280;48653;51.742;-1.256;2023-02-03T12:12:23;102570.01;;;12.36;50.32
62055;BME280;48653;51.742;-1.256;2023-02-03T12:14:47;102564.56;;;11.68;51.31
62055;BME280;48653;51.742;-1.256;2023-02-03T12:19:34;102554.41;;;12.62;49.91
62055;BME280;48653;51.742;-1.256;2023-02-03T12:22:04;102554.01;;;12.79;49.45
62055;BME280;48653;51.742;-1.256;2023-02-03T12:24:28;102550.82;;;12.55;50.54
62055;BME280;48653;51.742;-1.256;2023-02-03T12:26:46;102553.53;;;12.49;50.08
62055;BME280;48653;51.742;-1.256;2023-02-03T12:29:10;102558.97;;;12.40;50.73
62055;BME280;48653;51.742;-1.256;2023-02-03T12:31:37;102563.10;;;12.31;50.44
62055;BME280;48653;51.742;-1.256;2023-02-03T12:34:03;102566.40;;;12.50;50.10
62055;BME280;48653;51.742;-1.256;2023-02-03T12:36:25;102556.82;;;13.15;49.38
62055;BME280;48653;51.742;-1.256;2023-02-03T12:38:51;102550.06;;;12.89;49.46
62055;BME280;48653;51.742;-1.256;2023-02-03T12:41:14;102550.01;;;13.16;48.60
62055;BME280;48653;51.742;-1.256;2023-02-03T12:43:39;102547.90;;;13.06;49.21
62055;BME280;48653;51.742;-1.256;2023-02-03T12:46:08;102544.97;;;12.76;48.80
62055;BME280;48653;51.742;-1.256;2023-02-03T12:48:39;102545.98;;;12.79;49.33